^^

..:: Storico WU ::..




Lo storico viene creato da WUnderground con i dati che la stazione Meteomincio invia al loro server. L' aggiornamento viene fatto ogni 5 minuti circa, tuttavia possono esserci intervalli pił ampi a causa di errori, interruzioni di servizio o problemi nell' invio tramite FTP.


Storico stazione MeteoMincio
Giorno Sommario per Maggio 27, 2022 Unità:  Inglese    Metrico   Entrambi
Giorno Settimana Mese Anno
  Max: Min: Media:
Temperatura: 87.8 °F 68 °F 77.4 °F
Dew Point: 73.4 °F 64.4 °F 67.8 °F
Umidità: 92% 50% 74%
Velocità vento: 7.5mph 0mph 2.3mph
Raffica: 10.6mph - -
Direzione- - South
Pressione: 30.1 in 29.8 in -
Precipitazioni: 0 in    
 
 
Tabulato Dati per Maggio 27, 2022
Ora Temperatura Dew Point Pressione Direzione Velocità vento Raffica Umidità Intensità pioggia (oraria) Info solare Situazione
00:04 71.6 °F 68 °F 30.1 in ENE 1.9 mph 3.7 mph 87% 0 in 0.00 W/m2 unknown
00:09 69.8 °F 66.2 °F 30.1 in ENE 1.2 mph 3.7 mph 88% 0 in 0.00 W/m2 unknown
00:14 69.8 °F 66.2 °F 30.1 in ENE 1.9 mph 3.1 mph 88% 0 in 0.00 W/m2 unknown
00:19 69.8 °F 66.2 °F 30.1 in ENE 2.5 mph 3.7 mph 88% 0 in 0.00 W/m2 unknown
00:24 69.8 °F 66.2 °F 30.1 in ENE 1.9 mph 3.7 mph 88% 0 in 0.00 W/m2 unknown
00:29 69.8 °F 66.2 °F 30.1 in ENE 3.1 mph 3.7 mph 88% 0 in 0.00 W/m2 unknown
00:34 69.8 °F 66.2 °F 30.1 in NE 3.1 mph 3.7 mph 88% 0 in 0.00 W/m2 unknown
00:39 69.8 °F 66.2 °F 30.1 in NE 3.1 mph 3.7 mph 87% 0 in 0.00 W/m2 unknown
00:44 69.8 °F 66.2 °F 30.1 in ENE 3.1 mph 3.7 mph 86% 0 in 0.00 W/m2 unknown
00:49 69.8 °F 66.2 °F 30.1 in ENE 3.7 mph 5 mph 87% 0 in 0.00 W/m2 unknown
00:54 69.8 °F 66.2 °F 30.1 in East 3.1 mph 5 mph 87% 0 in 0.00 W/m2 unknown
00:59 69.8 °F 66.2 °F 30.1 in East 2.5 mph 5 mph 86% 0 in 0.00 W/m2 unknown
01:04 69.8 °F 66.2 °F 30.1 in ENE 3.1 mph 5 mph 86% 0 in 0.00 W/m2 unknown
01:09 69.8 °F 66.2 °F 30.1 in East 3.1 mph 5 mph 86% 0 in 0.00 W/m2 unknown
01:14 69.8 °F 66.2 °F 30.1 in East 3.1 mph 5 mph 86% 0 in 0.00 W/m2 unknown
01:19 69.8 °F 64.4 °F 30.1 in East 2.5 mph 5 mph 86% 0 in 0.00 W/m2 unknown
01:24 69.8 °F 64.4 °F 30.1 in East 1.9 mph 3.7 mph 86% 0 in 0.00 W/m2 unknown
01:29 69.8 °F 66.2 °F 30.1 in ENE 1.9 mph 3.7 mph 87% 0 in 0.00 W/m2 unknown
01:34 69.8 °F 66.2 °F 30.1 in ENE 2.5 mph 3.7 mph 87% 0 in 0.00 W/m2 unknown
01:39 69.8 °F 66.2 °F 30.1 in ENE 2.5 mph 3.7 mph 87% 0 in 0.00 W/m2 unknown
01:44 69.8 °F 66.2 °F 30.1 in ENE 2.5 mph 3.7 mph 87% 0 in 0.00 W/m2 unknown
01:49 69.8 °F 64.4 °F 30.1 in ENE 2.5 mph 3.7 mph 86% 0 in 0.00 W/m2 unknown
01:54 69.8 °F 64.4 °F 30.1 in ENE 2.5 mph 3.7 mph 86% 0 in 0.00 W/m2 unknown
01:59 69.8 °F 64.4 °F 30.1 in East 1.9 mph 3.7 mph 86% 0 in 0.00 W/m2 unknown
02:04 69.8 °F 64.4 °F 30.1 in ENE 1.9 mph 3.7 mph 86% 0 in 0.00 W/m2 unknown
02:09 69.8 °F 64.4 °F 30.1 in ENE 2.5 mph 3.7 mph 86% 0 in 0.00 W/m2 unknown
02:14 69.8 °F 64.4 °F 30.1 in ENE 2.5 mph 3.7 mph 86% 0 in 0.00 W/m2 unknown
02:19 69.8 °F 64.4 °F 30.1 in ENE 3.1 mph 3.7 mph 86% 0 in 0.00 W/m2 unknown
02:24 69.8 °F 64.4 °F 30.1 in ENE 2.5 mph 3.7 mph 86% 0 in 0.00 W/m2 unknown
02:29 69.8 °F 64.4 °F 30.1 in ENE 2.5 mph 3.7 mph 86% 0 in 0.00 W/m2 unknown
02:34 69.8 °F 64.4 °F 30.1 in East 2.5 mph 3.7 mph 86% 0 in 0.00 W/m2 unknown
02:39 69.8 °F 64.4 °F 30.1 in East 1.9 mph 3.7 mph 86% 0 in 0.00 W/m2 unknown
02:44 69.8 °F 64.4 °F 30.1 in East 1.9 mph 3.1 mph 87% 0 in 0.00 W/m2 unknown
02:49 69.8 °F 64.4 °F 30.1 in East 0.6 mph 1.9 mph 87% 0 in 0.00 W/m2 unknown
02:54 69.8 °F 64.4 °F 30.1 in East 0.6 mph 1.2 mph 87% 0 in 0.00 W/m2 unknown
02:59 69.8 °F 64.4 °F 30.1 in East 0.6 mph 1.9 mph 87% 0 in 0.00 W/m2 unknown
03:04 69.8 °F 64.4 °F 30.1 in East 1.2 mph 2.5 mph 87% 0 in 0.00 W/m2 unknown
03:09 69.8 °F 64.4 °F 30.1 in NNE 1.9 mph 3.7 mph 87% 0 in 0.00 W/m2 unknown
03:14 69.8 °F 64.4 °F 30.1 in NNE 1.9 mph 3.7 mph 87% 0 in 0.00 W/m2 unknown
03:19 69.8 °F 64.4 °F 30.1 in NE 1.2 mph 3.1 mph 87% 0 in 0.00 W/m2 unknown
03:24 69.8 °F 64.4 °F 30.1 in NE 1.2 mph 2.5 mph 87% 0 in 0.00 W/m2 unknown
03:29 68 °F 64.4 °F 30.1 in NE 1.2 mph 1.9 mph 88% 0 in 0.00 W/m2 unknown
03:34 68 °F 64.4 °F 30.1 in NNE 1.2 mph 2.5 mph 88% 0 in 0.00 W/m2 unknown
03:39 68 °F 64.4 °F 30.1 in North 1.9 mph 3.7 mph 88% 0 in 0.00 W/m2 unknown
03:44 68 °F 64.4 °F 30.1 in North 1.9 mph 3.7 mph 88% 0 in 0.00 W/m2 unknown
03:49 68 °F 64.4 °F 30.1 in North 1.2 mph 2.5 mph 88% 0 in 0.00 W/m2 unknown
03:54 68 °F 64.4 °F 30.1 in NNE 2.5 mph 3.7 mph 88% 0 in 0.00 W/m2 unknown
03:59 68 °F 64.4 °F 30.1 in NE 2.5 mph 3.7 mph 89% 0 in 0.00 W/m2 unknown
04:04 68 °F 64.4 °F 30.1 in ENE 2.5 mph 3.7 mph 89% 0 in 0.00 W/m2 unknown
04:09 68 °F 64.4 °F 30.1 in East 1.9 mph 3.7 mph 89% 0 in 0.00 W/m2 unknown
04:14 68 °F 64.4 °F 30.1 in ENE 2.5 mph 3.7 mph 90% 0 in 0.00 W/m2 unknown
04:19 68 °F 64.4 °F 30.1 in NE 1.2 mph 3.7 mph 90% 0 in 0.00 W/m2 unknown
04:24 68 °F 64.4 °F 30.1 in NE 1.2 mph 3.1 mph 90% 0 in 0.00 W/m2 unknown
04:29 68 °F 64.4 °F 30.1 in NNE 1.2 mph 2.5 mph 90% 0 in 0.00 W/m2 unknown
04:34 68 °F 64.4 °F 30.1 in NE 1.2 mph 2.5 mph 90% 0 in 0.00 W/m2 unknown
04:39 68 °F 64.4 °F 30.1 in NE 0.6 mph 1.2 mph 89% 0 in 0.00 W/m2 unknown
04:44 68 °F 64.4 °F 30.1 in NNW 0.6 mph 1.2 mph 89% 0 in 0.00 W/m2 unknown
04:49 68 °F 66.2 °F 30.1 in NW 1.2 mph 2.5 mph 90% 0 in 0.00 W/m2 unknown
04:54 68 °F 66.2 °F 30.1 in NW 0.6 mph 2.5 mph 90% 0 in 0.00 W/m2 unknown
04:59 68 °F 66.2 °F 30.1 in Calm   1.9 mph 90% 0 in 0.00 W/m2 unknown
05:04 68 °F 64.4 °F 30.1 in Calm     90% 0 in 0.00 W/m2 unknown
05:09 68 °F 64.4 °F 30.1 in Calm     90% 0 in 0.00 W/m2 unknown
05:14 68 °F 64.4 °F 30.1 in Calm     90% 0 in 0.00 W/m2 unknown
05:19 68 °F 64.4 °F 30.1 in SW 1.2 mph 3.1 mph 90% 0 in 0.00 W/m2 unknown
05:24 68 °F 64.4 °F 30.1 in SSW 1.9 mph 3.7 mph 90% 0 in 0.00 W/m2 unknown
05:29 68 °F 64.4 °F 30.1 in SSW 1.2 mph 2.5 mph 91% 0 in 0.00 W/m2 unknown
05:34 68 °F 64.4 °F 30.1 in Calm   1.9 mph 91% 0 in 0.00 W/m2 unknown
05:39 68 °F 64.4 °F 30 in Calm     91% 0 in 0.00 W/m2 unknown
05:44 68 °F 64.4 °F 30 in Calm     91% 0 in 5.00 W/m2 unknown
05:49 68 °F 64.4 °F 30 in Calm     92% 0 in 7.00 W/m2 unknown
05:54 68 °F 64.4 °F 30 in Calm     92% 0 in 9.00 W/m2 unknown
05:59 68 °F 64.4 °F 30 in Calm     92% 0 in 11.00 W/m2 unknown
06:04 68 °F 64.4 °F 30 in Calm   1.2 mph 92% 0 in 14.00 W/m2 unknown
06:09 68 °F 64.4 °F 30 in WNW 0.6 mph 2.5 mph 92% 0 in 18.00 W/m2 unknown
06:14 68 °F 64.4 °F 30 in NW 1.2 mph 3.1 mph 92% 0 in 21.00 W/m2 unknown
06:19 68 °F 64.4 °F 30 in NNW 1.9 mph 3.7 mph 92% 0 in 26.00 W/m2 unknown
06:24 68 °F 64.4 °F 30 in NNW 1.2 mph 3.7 mph 92% 0 in 30.00 W/m2 unknown
06:29 68 °F 64.4 °F 30.1 in Calm   3.1 mph 92% 0 in 37.00 W/m2 unknown
06:34 68 °F 66.2 °F 30.1 in NNW 0.6 mph 1.2 mph 92% 0 in 42.00 W/m2 unknown
06:39 68 °F 66.2 °F 30.1 in Calm   1.2 mph 92% 0 in 51.00 W/m2 unknown
06:44 68 °F 66.2 °F 30.1 in NNW 0.6 mph 1.2 mph 92% 0 in 58.00 W/m2 unknown
06:49 68 °F 66.2 °F 30.1 in NNE 1.2 mph 2.5 mph 92% 0 in 63.00 W/m2 unknown
06:54 68 °F 66.2 °F 30.1 in NNE 1.9 mph 2.5 mph 92% 0 in 76.00 W/m2 unknown
06:59 68 °F 66.2 °F 30.1 in NNE 1.2 mph 2.5 mph 92% 0 in 81.00 W/m2 unknown
07:04 68 °F 66.2 °F 30.1 in Calm   1.9 mph 91% 0 in 86.00 W/m2 unknown
07:09 68 °F 66.2 °F 30.1 in Calm   1.2 mph 91% 0 in 97.00 W/m2 unknown
07:14 69.8 °F 66.2 °F 30.1 in NE 1.2 mph 2.5 mph 91% 0 in 97.00 W/m2 unknown
07:19 69.8 °F 66.2 °F 30.1 in ENE 1.2 mph 2.5 mph 90% 0 in 123.00 W/m2 unknown
07:24 69.8 °F 66.2 °F 30.1 in ENE 1.2 mph 1.9 mph 90% 0 in 123.00 W/m2 unknown
07:29 69.8 °F 66.2 °F 30.1 in South 1.9 mph 3.7 mph 90% 0 in 146.00 W/m2 unknown
07:34 69.8 °F 66.2 °F 30.1 in South 1.2 mph 3.1 mph 90% 0 in 130.00 W/m2 unknown
07:39 69.8 °F 66.2 °F 30.1 in Calm   1.9 mph 90% 0 in 83.00 W/m2 unknown
07:44 69.8 °F 66.2 °F 30.1 in Calm   1.2 mph 89% 0 in 98.00 W/m2 unknown
07:49 69.8 °F 66.2 °F 30.1 in Calm     89% 0 in 135.00 W/m2 unknown
07:54 69.8 °F 66.2 °F 30.1 in SE 0.6 mph 1.2 mph 89% 0 in 209.00 W/m2 unknown
07:59 69.8 °F 66.2 °F 30.1 in SE 0.6 mph 1.2 mph 89% 0 in 234.00 W/m2 unknown
08:04 71.6 °F 66.2 °F 30.1 in NE 0.6 mph 2.5 mph 87% 0 in 253.00 W/m2 unknown
08:09 71.6 °F 68 °F 30.1 in NE 1.2 mph 2.5 mph 86% 0 in 272.00 W/m2 unknown
08:14 71.6 °F 68 °F 30.1 in Calm   3.1 mph 86% 0 in 292.00 W/m2 unknown
08:19 73.4 °F 68 °F 30.1 in East 1.9 mph 3.7 mph 85% 0 in 311.00 W/m2 unknown
08:24 73.4 °F 68 °F 30.1 in SE 1.9 mph 3.1 mph 84% 0 in 311.00 W/m2 unknown
08:29 73.4 °F 68 °F 30.1 in SSE 1.9 mph 3.7 mph 85% 0 in 244.00 W/m2 unknown
08:34 73.4 °F 68 °F 30.1 in SSE 1.9 mph 3.7 mph 85% 0 in 299.00 W/m2 unknown
08:39 73.4 °F 68 °F 30.1 in SE 1.2 mph 3.1 mph 85% 0 in 353.00 W/m2 unknown
08:44 73.4 °F 68 °F 30.1 in SW 1.2 mph 2.5 mph 85% 0 in 357.00 W/m2 unknown
08:49 73.4 °F 69.8 °F 30.1 in SSW 2.5 mph 4.3 mph 85% 0 in 374.00 W/m2 unknown
08:54 75.2 °F 69.8 °F 30.1 in SSW 3.1 mph 5 mph 83% 0 in 381.00 W/m2 unknown
08:59 75.2 °F 69.8 °F 30.1 in SW 3.1 mph 5 mph 84% 0 in 410.00 W/m2 unknown
09:04 75.2 °F 69.8 °F 30.1 in SW 2.5 mph 5 mph 83% 0 in 406.00 W/m2 unknown
09:09 75.2 °F 69.8 °F 30.1 in SW 2.5 mph 3.7 mph 83% 0 in 424.00 W/m2 unknown
09:14 75.2 °F 69.8 °F 30.1 in WSW 2.5 mph 3.7 mph 83% 0 in 432.00 W/m2 unknown
09:19 75.2 °F 69.8 °F 30.1 in WSW 1.2 mph 2.5 mph 82% 0 in 432.00 W/m2 unknown
09:24 77 °F 69.8 °F 30.1 in West 1.2 mph 2.5 mph 80% 0 in 434.00 W/m2 unknown
09:29 77 °F 69.8 °F 30.1 in West 2.5 mph 3.7 mph 80% 0 in 471.00 W/m2 unknown
09:34 77 °F 69.8 °F 30.1 in West 3.1 mph 3.7 mph 81% 0 in 490.00 W/m2 unknown
09:39 77 °F 69.8 °F 30.1 in WNW 2.5 mph 3.7 mph 80% 0 in 534.00 W/m2 unknown
09:44 77 °F 69.8 °F 30.1 in WSW 3.1 mph 3.7 mph 80% 0 in 529.00 W/m2 unknown
09:49 77 °F 69.8 °F 30.1 in WNW 3.1 mph 3.7 mph 79% 0 in 529.00 W/m2 unknown
09:54 78.8 °F 71.6 °F 30.1 in NW 2.5 mph 3.7 mph 81% 0 in 642.00 W/m2 unknown
09:59 78.8 °F 69.8 °F 30.1 in SW 1.9 mph 3.1 mph 78% 0 in 642.00 W/m2 unknown
10:04 78.8 °F 69.8 °F 30.1 in NNW 3.1 mph 3.7 mph 78% 0 in 450.00 W/m2 unknown
10:09 78.8 °F 69.8 °F 30.1 in WNW 3.7 mph 5 mph 76% 0 in 645.00 W/m2 unknown
10:14 78.8 °F 69.8 °F 30.1 in WNW 3.1 mph 5 mph 75% 0 in 643.00 W/m2 unknown
10:19 78.8 °F 71.6 °F 30.1 in NW 3.1 mph 6.2 mph 77% 0 in 643.00 W/m2 unknown
10:24 78.8 °F 71.6 °F 30.1 in NW 3.1 mph 6.2 mph 76% 0 in 643.00 W/m2 unknown
10:29 78.8 °F 69.8 °F 30.1 in NW 3.1 mph 6.2 mph 74% 0 in 487.00 W/m2 unknown
10:34 78.8 °F 69.8 °F 30.1 in NNW 4.3 mph 6.2 mph 76% 0 in 527.00 W/m2 unknown
10:39 78.8 °F 71.6 °F 30.1 in North 4.3 mph 6.2 mph 76% 0 in 520.00 W/m2 unknown
10:44 78.8 °F 69.8 °F 30.1 in NNW 3.7 mph 6.2 mph 74% 0 in 519.00 W/m2 unknown
10:49 78.8 °F 71.6 °F 30.1 in NW 3.7 mph 6.2 mph 75% 0 in 519.00 W/m2 unknown
10:54 78.8 °F 69.8 °F 30.1 in WNW 3.7 mph 6.2 mph 72% 0 in 708.00 W/m2 unknown
10:59 78.8 °F 68 °F 30.1 in WNW 3.7 mph 6.2 mph 70% 0 in 499.00 W/m2 unknown
11:04 78.8 °F 69.8 °F 30.1 in NW 3.7 mph 5 mph 74% 0 in 341.00 W/m2 unknown
11:09 78.8 °F 69.8 °F 30.1 in WNW 3.7 mph 4.3 mph 74% 0 in 306.00 W/m2 unknown
11:14 78.8 °F 69.8 °F 30 in WNW 3.1 mph 5 mph 73% 0 in 308.00 W/m2 unknown
11:19 78.8 °F 69.8 °F 30 in West 3.1 mph 3.7 mph 74% 0 in 308.00 W/m2 unknown
11:24 78.8 °F 69.8 °F 30 in WNW 3.1 mph 3.7 mph 74% 0 in 316.00 W/m2 unknown
11:29 78.8 °F 69.8 °F 30 in NNE 1.9 mph 3.7 mph 74% 0 in 352.00 W/m2 unknown
11:34 78.8 °F 69.8 °F 30 in NNW 2.5 mph 3.7 mph 75% 0 in 364.00 W/m2 unknown
11:39 78.8 °F 69.8 °F 30 in WNW 3.1 mph 3.7 mph 73% 0 in 436.00 W/m2 unknown
11:44 78.8 °F 69.8 °F 30 in WNW 3.1 mph 3.7 mph 72% 0 in 689.00 W/m2 unknown
11:49 80.6 °F 69.8 °F 30 in West 3.1 mph 3.7 mph 72% 0 in 831.00 W/m2 unknown
11:54 80.6 °F 69.8 °F 30 in SSW 2.5 mph 3.7 mph 72% 0 in 826.00 W/m2 unknown
11:59 80.6 °F 69.8 °F 30 in East 2.5 mph 3.7 mph 71% 0 in 823.00 W/m2 unknown
12:04 80.6 °F 73.4 °F 30 in East 2.5 mph 6.2 mph 75% 0 in 823.00 W/m2 unknown
12:09 80.6 °F 69.8 °F 30 in SSW 3.7 mph 6.8 mph 71% 0 in 831.00 W/m2 unknown
12:14 80.6 °F 69.8 °F 30 in WNW 3.1 mph 6.8 mph 70% 0 in 831.00 W/m2 unknown
12:19 82.4 °F 69.8 °F 30 in South 2.5 mph 5 mph 70% 0 in 830.00 W/m2 unknown
12:24 82.4 °F 71.6 °F 30 in SSE 3.1 mph 5 mph 69% 0 in 838.00 W/m2 unknown
12:29 82.4 °F 71.6 °F 30 in SSW 2.5 mph 5 mph 69% 0 in 837.00 W/m2 unknown
12:34 82.4 °F 69.8 °F 30 in ESE 5.6 mph 6.8 mph 67% 0 in 844.00 W/m2 unknown
12:39 82.4 °F 69.8 °F 30 in WSW 5 mph 6.8 mph 66% 0 in 851.00 W/m2 unknown
12:44 84.2 °F 69.8 °F 30 in WSW 2.5 mph 5 mph 66% 0 in 853.00 W/m2 unknown
12:49 84.2 °F 69.8 °F 30 in ESE 3.7 mph 5 mph 63% 0 in 854.00 W/m2 unknown
12:54 84.2 °F 69.8 °F 30 in East 3.1 mph 5 mph 65% 0 in 863.00 W/m2 unknown
12:59 84.2 °F 69.8 °F 30 in South 3.1 mph 5 mph 64% 0 in 877.00 W/m2 unknown
13:04 84.2 °F 69.8 °F 30 in SE 3.1 mph 3.7 mph 63% 0 in 861.00 W/m2 unknown
13:09 82.4 °F 69.8 °F 30 in SSE 2.5 mph 3.7 mph 63% 0 in 858.00 W/m2 unknown
13:14 84.2 °F 69.8 °F 30 in North 2.5 mph 3.7 mph 65% 0 in 865.00 W/m2 unknown
13:19 84.2 °F 69.8 °F 30 in ESE 2.5 mph 5 mph 64% 0 in 865.00 W/m2 unknown
13:24 84.2 °F 69.8 °F 30 in ESE 3.1 mph 5 mph 62% 0 in 803.00 W/m2 unknown
13:29 84.2 °F 69.8 °F 30 in West 3.7 mph 6.8 mph 62% 0 in 791.00 W/m2 unknown
13:34 84.2 °F 69.8 °F 30 in WNW 5 mph 6.8 mph 63% 0 in 747.00 W/m2 unknown
13:39 84.2 °F 69.8 °F 30 in WNW 6.2 mph 8.1 mph 62% 0 in 800.00 W/m2 unknown
13:44 84.2 °F 69.8 °F 30 in WNW 6.2 mph 8.1 mph 61% 0 in 788.00 W/m2 unknown
13:49 84.2 °F 69.8 °F 30 in West 5 mph 6.8 mph 62% 0 in 728.00 W/m2 unknown
13:54 84.2 °F 69.8 °F 30 in WSW 3.1 mph 6.2 mph 63% 0 in 729.00 W/m2 unknown
13:59 84.2 °F 69.8 °F 30 in SW 3.7 mph 6.2 mph 62% 0 in 686.00 W/m2 unknown
14:04 84.2 °F 69.8 °F 30 in WNW 3.1 mph 6.2 mph 63% 0 in 700.00 W/m2 unknown
14:09 86 °F 71.6 °F 30 in NNW 3.1 mph 6.2 mph 64% 0 in 726.00 W/m2 unknown
14:14 86 °F 71.6 °F 30 in NW 3.7 mph 5 mph 64% 0 in 722.00 W/m2 unknown
14:19 86 °F 69.8 °F 30 in NW 3.1 mph 6.2 mph 61% 0 in 705.00 W/m2 unknown
14:24 86 °F 69.8 °F 30 in NW 5 mph 6.2 mph 61% 0 in 721.00 W/m2 unknown
14:29 86 °F 69.8 °F 30 in WNW 3.1 mph 6.2 mph 61% 0 in 722.00 W/m2 unknown
14:34 84.2 °F 69.8 °F 30 in WSW 3.7 mph 5 mph 61% 0 in 738.00 W/m2 unknown
14:39 86 °F 69.8 °F 30 in WSW 3.7 mph 5 mph 62% 0 in 766.00 W/m2 unknown
14:44 86 °F 69.8 °F 30 in West 2.5 mph 3.7 mph 61% 0 in 761.00 W/m2 unknown
14:49 86 °F 69.8 °F 30 in South 2.5 mph 3.7 mph 62% 0 in 738.00 W/m2 unknown
14:54 86 °F 69.8 °F 30 in SSE 2.5 mph 3.7 mph 61% 0 in 777.00 W/m2 unknown
14:59 86 °F 73.4 °F 30 in NNW 3.1 mph 3.7 mph 64% 0 in 784.00 W/m2 unknown
15:04 87.8 °F 73.4 °F 30 in SW 5 mph 6.8 mph 64% 0 in 786.00 W/m2 unknown
15:09 87.8 °F 69.8 °F 29.9 in SW 5 mph 8.1 mph 57% 0 in 777.00 W/m2 unknown
15:14 86 °F 69.8 °F 29.9 in West 6.2 mph 8.1 mph 58% 0 in 770.00 W/m2 unknown
15:19 86 °F 69.8 °F 29.9 in West 7.5 mph 10.6 mph 57% 0 in 738.00 W/m2 unknown
15:24 86 °F 69.8 °F 29.9 in SW 6.8 mph 9.9 mph 58% 0 in 705.00 W/m2 unknown
15:29 86 °F 69.8 °F 29.9 in WSW 6.2 mph 8.1 mph 57% 0 in 744.00 W/m2 unknown
15:34 86 °F 69.8 °F 29.9 in WSW 6.2 mph 8.1 mph 58% 0 in 719.00 W/m2 unknown
15:39 86 °F 69.8 °F 29.9 in WSW 5.6 mph 6.8 mph 58% 0 in 707.00 W/m2 unknown
15:44 86 °F 69.8 °F 29.9 in WSW 5.6 mph 6.8 mph 57% 0 in 666.00 W/m2 unknown
15:49 87.8 °F 68 °F 29.9 in WSW 5 mph 6.8 mph 55% 0 in 633.00 W/m2 unknown
15:54 87.8 °F 69.8 °F 29.9 in West 3.1 mph 6.8 mph 56% 0 in 606.00 W/m2 unknown
15:59 86 °F 69.8 °F 29.9 in SW 3.1 mph 6.2 mph 56% 0 in 603.00 W/m2 unknown
16:04 87.8 °F 68 °F 29.9 in SW 3.1 mph 3.7 mph 55% 0 in 596.00 W/m2 unknown
16:09 87.8 °F 69.8 °F 29.9 in SW 3.7 mph 5 mph 57% 0 in 594.00 W/m2 unknown
16:14 87.8 °F 69.8 °F 29.9 in WSW 3.7 mph 5 mph 56% 0 in 599.00 W/m2 unknown
16:19 87.8 °F 68 °F 29.9 in SW 3.7 mph 5 mph 55% 0 in 606.00 W/m2 unknown
16:24 87.8 °F 69.8 °F 29.9 in SSW 2.5 mph 5 mph 56% 0 in 585.00 W/m2 unknown
16:29 87.8 °F 68 °F 29.9 in SSW 3.1 mph 8.1 mph 54% 0 in 568.00 W/m2 unknown
16:34 87.8 °F 68 °F 29.9 in SW 4.3 mph 8.1 mph 54% 0 in 550.00 W/m2 unknown
16:39 87.8 °F 68 °F 29.9 in West 5.6 mph 8.1 mph 54% 0 in 533.00 W/m2 unknown
16:44 87.8 °F 68 °F 29.9 in West 6.2 mph 8.1 mph 54% 0 in 506.00 W/m2 unknown
16:49 87.8 °F 69.8 °F 29.9 in West 4.3 mph 8.1 mph 55% 0 in 478.00 W/m2 unknown
16:54 87.8 °F 68 °F 29.9 in SW 5 mph 6.8 mph 54% 0 in 462.00 W/m2 unknown
16:59 87.8 °F 68 °F 29.9 in SSW 5 mph 6.8 mph 52% 0 in 450.00 W/m2 unknown
17:04 87.8 °F 68 °F 29.9 in SW 5.6 mph 8.1 mph 51% 0 in 420.00 W/m2 unknown
17:09 87.8 °F 68 °F 29.9 in SSW 6.2 mph 8.1 mph 51% 0 in 418.00 W/m2 unknown
17:14 87.8 °F 66.2 °F 29.9 in SSW 5.6 mph 6.8 mph 51% 0 in 408.00 W/m2 unknown
17:19 86 °F 68 °F 29.9 in SSW 3.1 mph 6.8 mph 53% 0 in 401.00 W/m2 unknown
17:24 87.8 °F 68 °F 29.9 in SSW 3.1 mph 3.7 mph 53% 0 in 464.00 W/m2 unknown
17:29 87.8 °F 66.2 °F 29.9 in SW 4.3 mph 6.2 mph 50% 0 in 475.00 W/m2 unknown
17:34 87.8 °F 66.2 °F 29.9 in SW 4.3 mph 6.2 mph 51% 0 in 473.00 W/m2 unknown
17:39 87.8 °F 66.2 °F 29.9 in SSW 2.5 mph 6.2 mph 51% 0 in 464.00 W/m2 unknown
17:44 87.8 °F 68 °F 29.9 in SSW 3.1 mph 5 mph 52% 0 in 464.00 W/m2 unknown
17:49 87.8 °F 68 °F 29.9 in SW 4.3 mph 6.8 mph 51% 0 in 446.00 W/m2 unknown
17:54 87.8 °F 68 °F 29.9 in SW 3.1 mph 6.8 mph 51% 0 in 420.00 W/m2 unknown
17:59 87.8 °F 68 °F 29.9 in South 4.3 mph 6.8 mph 52% 0 in 388.00 W/m2 unknown
18:04 87.8 °F 68 °F 29.9 in South 3.1 mph 6.8 mph 51% 0 in 381.00 W/m2 unknown
18:09 87.8 °F 68 °F 29.9 in SSW 3.1 mph 6.2 mph 51% 0 in 374.00 W/m2 unknown
18:14 87.8 °F 68 °F 29.9 in South 4.3 mph 6.2 mph 52% 0 in 355.00 W/m2 unknown
18:19 87.8 °F 68 °F 29.9 in South 3.7 mph 6.2 mph 51% 0 in 336.00 W/m2 unknown
18:24 87.8 °F 68 °F 29.9 in SSW 4.3 mph 8.7 mph 52% 0 in 315.00 W/m2 unknown
18:29 87.8 °F 68 °F 29.9 in SSW 5 mph 9.3 mph 53% 0 in 299.00 W/m2 unknown
18:34 87.8 °F 68 °F 29.9 in SSW 5.6 mph 8.7 mph 53% 0 in 281.00 W/m2 unknown
18:39 87.8 °F 68 °F 29.9 in South 6.2 mph 6.8 mph 52% 0 in 274.00 W/m2 unknown
18:44 87.8 °F 68 °F 29.9 in SSW 5.6 mph 6.8 mph 52% 0 in 260.00 W/m2 unknown
18:49 87.8 °F 68 °F 29.9 in SSW 6.2 mph 8.1 mph 53% 0 in 248.00 W/m2 unknown
18:54 87.8 °F 68 °F 29.9 in SSW 5 mph 8.1 mph 53% 0 in 239.00 W/m2 unknown
18:59 87.8 °F 68 °F 29.9 in SSW 3.7 mph 6.8 mph 53% 0 in 225.00 W/m2 unknown
19:04 87.8 °F 68 °F 29.9 in SSW 5 mph 6.8 mph 52% 0 in 209.00 W/m2 unknown
19:09 86 °F 68 °F 29.9 in SSW 5 mph 6.8 mph 53% 0 in 195.00 W/m2 unknown
19:14 86 °F 68 °F 29.9 in South 5 mph 6.2 mph 54% 0 in 183.00 W/m2 unknown
19:19 86 °F 68 °F 29.9 in South 5 mph 6.2 mph 55% 0 in 169.00 W/m2 unknown
19:24 86 °F 68 °F 29.9 in South 5 mph 6.2 mph 56% 0 in 156.00 W/m2 unknown
19:29 86 °F 68 °F 29.9 in South 3.7 mph 6.2 mph 57% 0 in 142.00 W/m2 unknown
19:34 86 °F 68 °F 29.9 in South 1.9 mph 5 mph 57% 0 in 123.00 W/m2 unknown
19:39 86 °F 68 °F 29.9 in South 1.9 mph 3.7 mph 58% 0 in 113.00 W/m2 unknown
19:44 84.2 °F 68 °F 29.9 in South 2.5 mph 3.7 mph 59% 0 in 104.00 W/m2 unknown
19:49 84.2 °F 69.8 °F 29.9 in SE 1.2 mph 3.1 mph 60% 0 in 90.00 W/m2 unknown
19:54 84.2 °F 69.8 °F 29.9 in SE 1.2 mph 2.5 mph 60% 0 in 77.00 W/m2 unknown
19:59 84.2 °F 68 °F 29.9 in SE 1.2 mph 3.7 mph 60% 0 in 65.00 W/m2 unknown
20:04 84.2 °F 68 °F 29.9 in SE 1.2 mph 3.1 mph 61% 0 in 42.00 W/m2 unknown
20:09 84.2 °F 68 °F 29.9 in SE 1.2 mph 2.5 mph 62% 0 in 37.00 W/m2 unknown
20:14 82.4 °F 69.8 °F 29.9 in SE 1.2 mph 2.5 mph 64% 0 in 33.00 W/m2 unknown
20:19 82.4 °F 69.8 °F 29.9 in ESE 1.2 mph 2.5 mph 64% 0 in 30.00 W/m2 unknown
20:24 82.4 °F 69.8 °F 29.9 in ESE 1.2 mph 2.5 mph 65% 0 in 25.00 W/m2 unknown
20:29 82.4 °F 69.8 °F 29.9 in ESE 1.2 mph 1.2 mph 66% 0 in 21.00 W/m2 unknown
20:34 82.4 °F 69.8 °F 29.9 in ESE 0.6 mph 1.2 mph 67% 0 in 18.00 W/m2 unknown
20:39 82.4 °F 69.8 °F 29.9 in SE 1.2 mph 2.5 mph 68% 0 in 14.00 W/m2 unknown
20:44 80.6 °F 69.8 °F 29.9 in SE 1.2 mph 2.5 mph 69% 0 in 11.00 W/m2 unknown
20:49 80.6 °F 69.8 °F 29.9 in SE 1.2 mph 1.9 mph 70% 0 in 7.00 W/m2 unknown
20:54 80.6 °F 69.8 °F 29.9 in SE 0.6 mph 1.2 mph 70% 0 in 5.00 W/m2 unknown
20:59 80.6 °F 69.8 °F 29.9 in Calm   1.2 mph 69% 0 in 0.00 W/m2 unknown
21:04 80.6 °F 69.8 °F 29.9 in SE 0.6 mph 1.2 mph 70% 0 in 0.00 W/m2 unknown
21:09 78.8 °F 69.8 °F 29.9 in Calm   1.2 mph 71% 0 in 0.00 W/m2 unknown
21:14 78.8 °F 68 °F 29.9 in Calm     71% 0 in 0.00 W/m2 unknown
21:19 78.8 °F 69.8 °F 29.9 in Calm     72% 0 in 0.00 W/m2 unknown
21:24 78.8 °F 69.8 °F 29.9 in Calm     72% 0 in 0.00 W/m2 unknown
21:29 78.8 °F 68 °F 29.9 in Calm     71% 0 in 0.00 W/m2 unknown
21:34 78.8 °F 68 °F 29.9 in Calm     72% 0 in 0.00 W/m2 unknown
21:39 78.8 °F 68 °F 29.9 in Calm     73% 0 in 0.00 W/m2 unknown
21:44 78.8 °F 69.8 °F 29.9 in Calm     74% 0 in 0.00 W/m2 unknown
21:49 77 °F 68 °F 29.9 in Calm     74% 0 in 0.00 W/m2 unknown
21:54 77 °F 68 °F 29.9 in Calm     74% 0 in 0.00 W/m2 unknown
21:59 77 °F 68 °F 29.9 in Calm     75% 0 in 0.00 W/m2 unknown
22:04 77 °F 68 °F 29.9 in Calm     75% 0 in 0.00 W/m2 unknown
22:09 77 °F 68 °F 29.9 in Calm     75% 0 in 0.00 W/m2 unknown
22:14 77 °F 68 °F 29.9 in Calm     75% 0 in 0.00 W/m2 unknown
22:19 75.2 °F 68 °F 29.9 in Calm     75% 0 in 0.00 W/m2 unknown
22:24 75.2 °F 68 °F 29.9 in Calm     76% 0 in 0.00 W/m2 unknown
22:29 75.2 °F 68 °F 29.9 in Calm     76% 0 in 0.00 W/m2 unknown
22:34 75.2 °F 68 °F 29.9 in Calm     76% 0 in 0.00 W/m2 unknown
22:39 75.2 °F 68 °F 29.9 in Calm     76% 0 in 0.00 W/m2 unknown
22:44 75.2 °F 68 °F 29.9 in Calm     76% 0 in 0.00 W/m2 unknown
22:49 75.2 °F 68 °F 29.9 in Calm     76% 0 in 0.00 W/m2 unknown
22:54 75.2 °F 68 °F 29.9 in Calm     76% 0 in 0.00 W/m2 unknown
22:59 75.2 °F 68 °F 29.9 in Calm     77% 0 in 0.00 W/m2 unknown
23:04 75.2 °F 68 °F 29.8 in Calm     78% 0 in 0.00 W/m2 unknown
23:09 75.2 °F 68 °F 29.8 in Calm     78% 0 in 0.00 W/m2 unknown
23:14 75.2 °F 68 °F 29.8 in Calm     76% 0 in 0.00 W/m2 unknown
23:19 75.2 °F 68 °F 29.8 in Calm     78% 0 in 0.00 W/m2 unknown
23:24 75.2 °F 68 °F 29.8 in Calm     79% 0 in 0.00 W/m2 unknown
23:29 75.2 °F 68 °F 29.8 in Calm     79% 0 in 0.00 W/m2 unknown
23:34 75.2 °F 68 °F 29.8 in Calm     80% 0 in 0.00 W/m2 unknown
23:39 73.4 °F 68 °F 29.8 in Calm     80% 0 in 0.00 W/m2 unknown
23:44 73.4 °F 68 °F 29.8 in Calm     80% 0 in 0.00 W/m2 unknown
23:49 73.4 °F 68 °F 29.8 in Calm     80% 0 in 0.00 W/m2 unknown
23:54 73.4 °F 68 °F 29.8 in Calm     81% 0 in 0.00 W/m2 unknown
23:59 73.4 °F 66.2 °F 29.8 in Calm     81% 0 in 0.00 W/m2 unknown
Stazione Meteorologica MeteoMincio Rivalta s/M (MN)
Con i complimenti di Weather Underground - 4 mb



METEO PILLOLE
Il luogo più freddo della Terra
Stazione Sovetskaja - Antartide
La temperatura media nel 1957/58 è stata di - 57.3°C.
Share

Non seguire questo link o sarai bannato dal sito!